sensor_id;sensor_type;location;lat;lon;timestamp;pressure;altitude;pressure_sealevel;temperature;humidity
69524;BME280;56723;42.694;23.286;2023-03-26T00:01:23;94586.94;;;8.93;83.08
69524;BME280;56723;42.694;23.286;2023-03-26T00:03:52;94600.84;;;8.92;83.50
69524;BME280;56723;42.694;23.286;2023-03-26T00:06:21;94599.91;;;8.85;83.96
69524;BME280;56723;42.694;23.286;2023-03-26T00:08:48;94604.09;;;8.86;84.28
69524;BME280;56723;42.694;23.286;2023-03-26T00:11:17;94602.81;;;8.82;84.11
69524;BME280;56723;42.694;23.286;2023-03-26T00:13:45;94603.78;;;8.81;84.16
69524;BME280;56723;42.694;23.286;2023-03-26T00:16:15;94598.28;;;8.84;84.37
69524;BME280;56723;42.694;23.286;2023-03-26T00:18:42;94600.88;;;8.84;84.67
69524;BME280;56723;42.694;23.286;2023-03-26T00:21:13;94585.88;;;8.71;84.80
69524;BME280;56723;42.694;23.286;2023-03-26T00:23:41;94583.91;;;8.73;85.25
69524;BME280;56723;42.694;23.286;2023-03-26T00:26:09;94577.66;;;8.67;85.28
69524;BME280;56723;42.694;23.286;2023-03-26T00:28:38;94569.56;;;8.62;85.39
69524;BME280;56723;42.694;23.286;2023-03-26T00:31:07;94572.16;;;8.71;85.22
69524;BME280;56723;42.694;23.286;2023-03-26T00:33:34;94563.94;;;8.67;85.22
69524;BME280;56723;42.694;23.286;2023-03-26T00:36:12;94575.72;;;8.70;85.12
69524;BME280;56723;42.694;23.286;2023-03-26T00:38:41;94568.59;;;8.72;84.71
69524;BME280;56723;42.694;23.286;2023-03-26T00:41:12;94576.66;;;8.77;84.56
69524;BME280;56723;42.694;23.286;2023-03-26T00:43:51;94565.84;;;8.73;83.95
69524;BME280;56723;42.694;23.286;2023-03-26T00:46:19;94570.84;;;8.75;83.84
69524;BME280;56723;42.694;23.286;2023-03-26T00:48:46;94573.09;;;8.78;83.54
69524;BME280;56723;42.694;23.286;2023-03-26T00:51:15;94575.50;;;8.79;83.51
69524;BME280;56723;42.694;23.286;2023-03-26T00:53:44;94566.63;;;8.74;83.10
69524;BME280;56723;42.694;23.286;2023-03-26T00:56:12;94571.47;;;8.77;82.81
69524;BME280;56723;42.694;23.286;2023-03-26T00:58:39;94561.16;;;8.77;82.54
69524;BME280;56723;42.694;23.286;2023-03-26T01:01:09;94570.84;;;8.83;82.14
69524;BME280;56723;42.694;23.286;2023-03-26T01:03:41;94566.31;;;8.85;82.06
69524;BME280;56723;42.694;23.286;2023-03-26T01:06:25;94572.75;;;8.89;81.24
69524;BME280;56723;42.694;23.286;2023-03-26T01:08:54;94574.38;;;8.90;81.41
69524;BME280;56723;42.694;23.286;2023-03-26T01:11:31;94581.66;;;8.86;81.70
69524;BME280;56723;42.694;23.286;2023-03-26T01:14:03;94575.69;;;8.86;81.61
69524;BME280;56723;42.694;23.286;2023-03-26T01:16:40;94584.06;;;8.88;81.65
69524;BME280;56723;42.694;23.286;2023-03-26T01:19:18;94586.81;;;8.86;81.86
69524;BME280;56723;42.694;23.286;2023-03-26T01:21:47;94582.47;;;8.79;82.27
69524;BME280;56723;42.694;23.286;2023-03-26T01:24:14;94585.38;;;8.76;82.81
69524;BME280;56723;42.694;23.286;2023-03-26T01:40:50;94598.31;;;8.67;83.08
69524;BME280;56723;42.694;23.286;2023-03-26T01:46:15;94598.00;;;8.71;83.36
69524;BME280;56723;42.694;23.286;2023-03-26T01:48:44;94604.13;;;8.70;83.67
69524;BME280;56723;42.694;23.286;2023-03-26T01:51:13;94604.28;;;8.68;84.08
69524;BME280;56723;42.694;23.286;2023-03-26T01:53:43;94606.72;;;8.70;84.22
69524;BME280;56723;42.694;23.286;2023-03-26T02:02:11;94599.75;;;8.62;86.11
69524;BME280;56723;42.694;23.286;2023-03-26T03:39:32;94650.38;;;7.48;92.53
69524;BME280;56723;42.694;23.286;2023-03-26T03:42:02;94665.88;;;7.56;92.17
69524;BME280;56723;42.694;23.286;2023-03-26T03:44:29;94651.06;;;7.58;91.94
69524;BME280;56723;42.694;23.286;2023-03-26T03:46:57;94660.41;;;7.59;91.85
69524;BME280;56723;42.694;23.286;2023-03-26T03:49:25;94650.72;;;7.61;91.80
69524;BME280;56723;42.694;23.286;2023-03-26T03:51:55;94648.16;;;7.61;91.74
69524;BME280;56723;42.694;23.286;2023-03-26T03:54:29;94659.44;;;7.60;91.75
69524;BME280;56723;42.694;23.286;2023-03-26T03:57:05;94660.88;;;7.62;91.78
69524;BME280;56723;42.694;23.286;2023-03-26T03:59:37;94669.75;;;7.60;91.76
69524;BME280;56723;42.694;23.286;2023-03-26T05:20:03;94768.38;;;7.62;87.38
69524;BME280;56723;42.694;23.286;2023-03-26T05:22:31;94771.16;;;7.69;87.71
69524;BME280;56723;42.694;23.286;2023-03-26T05:25:21;94779.69;;;7.69;88.00
69524;BME280;56723;42.694;23.286;2023-03-26T05:27:48;94783.59;;;7.73;88.37
69524;BME280;56723;42.694;23.286;2023-03-26T05:30:19;94788.47;;;7.76;88.55
69524;BME280;56723;42.694;23.286;2023-03-26T05:32:52;94779.63;;;7.87;88.60
69524;BME280;56723;42.694;23.286;2023-03-26T05:35:24;94776.44;;;7.93;88.11
69524;BME280;56723;42.694;23.286;2023-03-26T05:37:51;94772.25;;;8.00;88.08
69524;BME280;56723;42.694;23.286;2023-03-26T05:40:21;94772.31;;;8.08;87.33
69524;BME280;56723;42.694;23.286;2023-03-26T05:42:59;94780.88;;;8.17;87.00
69524;BME280;56723;42.694;23.286;2023-03-26T05:45:39;94772.66;;;8.13;86.46
69524;BME280;56723;42.694;23.286;2023-03-26T05:48:23;94790.25;;;8.26;85.80
69524;BME280;56723;42.694;23.286;2023-03-26T05:50:52;94796.59;;;8.31;85.56
69524;BME280;56723;42.694;23.286;2023-03-26T05:53:21;94793.06;;;8.32;85.49
69524;BME280;56723;42.694;23.286;2023-03-26T05:56:08;94783.88;;;8.38;84.41
69524;BME280;56723;42.694;23.286;2023-03-26T05:58:55;94781.31;;;8.46;84.42
69524;BME280;56723;42.694;23.286;2023-03-26T06:01:40;94779.56;;;8.55;83.88
69524;BME280;56723;42.694;23.286;2023-03-26T06:04:13;94780.34;;;8.55;82.28
69524;BME280;56723;42.694;23.286;2023-03-26T06:06:54;94790.88;;;8.62;81.17
69524;BME280;56723;42.694;23.286;2023-03-26T06:09:22;94779.41;;;8.64;79.97
69524;BME280;56723;42.694;23.286;2023-03-26T06:11:49;94770.22;;;8.62;80.01
69524;BME280;56723;42.694;23.286;2023-03-26T06:14:17;94772.31;;;8.66;78.95
69524;BME280;56723;42.694;23.286;2023-03-26T06:17:04;94772.47;;;8.73;80.20
69524;BME280;56723;42.694;23.286;2023-03-26T06:19:51;94773.97;;;8.84;79.62
69524;BME280;56723;42.694;23.286;2023-03-26T06:22:30;94783.66;;;8.90;78.90
69524;BME280;56723;42.694;23.286;2023-03-26T06:25:26;94784.94;;;8.94;78.35
69524;BME280;56723;42.694;23.286;2023-03-26T06:28:03;94782.06;;;9.05;78.23
69524;BME280;56723;42.694;23.286;2023-03-26T06:30:36;94777.84;;;9.04;78.25
69524;BME280;56723;42.694;23.286;2023-03-26T06:33:11;94769.28;;;9.03;78.62
69524;BME280;56723;42.694;23.286;2023-03-26T06:35:44;94774.59;;;9.10;78.35
69524;BME280;56723;42.694;23.286;2023-03-26T06:38:13;94765.56;;;9.14;77.65
69524;BME280;56723;42.694;23.286;2023-03-26T06:40:40;94769.78;;;9.07;76.61
69524;BME280;56723;42.694;23.286;2023-03-26T06:43:27;94761.69;;;9.02;76.56
69524;BME280;56723;42.694;23.286;2023-03-26T06:46:14;94772.19;;;9.09;76.28
69524;BME280;56723;42.694;23.286;2023-03-26T06:48:41;94777.19;;;9.18;75.00
69524;BME280;56723;42.694;23.286;2023-03-26T06:51:11;94775.56;;;9.17;73.71
69524;BME280;56723;42.694;23.286;2023-03-26T06:54:11;94799.31;;;9.29;73.70
69524;BME280;56723;42.694;23.286;2023-03-26T06:57:00;94793.50;;;9.35;72.27
69524;BME280;56723;42.694;23.286;2023-03-26T07:00:05;94790.75;;;9.36;72.43
69524;BME280;56723;42.694;23.286;2023-03-26T07:02:53;94793.97;;;9.30;73.35
69524;BME280;56723;42.694;23.286;2023-03-26T07:05:41;94797.88;;;9.34;72.90
69524;BME280;56723;42.694;23.286;2023-03-26T07:08:08;94803.03;;;9.34;73.05
69524;BME280;56723;42.694;23.286;2023-03-26T07:10:54;94791.06;;;9.42;73.17
69524;BME280;56723;42.694;23.286;2023-03-26T07:13:45;94792.53;;;9.44;73.37
69524;BME280;56723;42.694;23.286;2023-03-26T07:16:32;94782.03;;;9.46;70.36
69524;BME280;56723;42.694;23.286;2023-03-26T07:19:32;94791.41;;;9.38;69.72
69524;BME280;56723;42.694;23.286;2023-03-26T07:21:59;94791.38;;;9.47;70.09
69524;BME280;56723;42.694;23.286;2023-03-26T07:24:56;94788.47;;;9.58;69.72
69524;BME280;56723;42.694;23.286;2023-03-26T07:27:58;94781.66;;;9.65;69.33
69524;BME280;56723;42.694;23.286;2023-03-26T07:36:41;94772.78;;;10.06;67.36
69524;BME280;56723;42.694;23.286;2023-03-26T07:39:41;94766.63;;;10.16;67.04
69524;BME280;56723;42.694;23.286;2023-03-26T07:42:52;94774.03;;;10.27;66.42
69524;BME280;56723;42.694;23.286;2023-03-26T07:45:55;94774.03;;;10.27;65.49
69524;BME280;56723;42.694;23.286;2023-03-26T07:48:45;94759.78;;;10.31;66.17
69524;BME280;56723;42.694;23.286;2023-03-26T07:51:39;94766.81;;;10.45;65.73
69524;BME280;56723;42.694;23.286;2023-03-26T07:54:13;94767.06;;;10.58;66.05
69524;BME280;56723;42.694;23.286;2023-03-26T08:00:19;94760.34;;;10.72;59.32
69524;BME280;56723;42.694;23.286;2023-03-26T08:03:02;94762.41;;;10.76;58.10
69524;BME280;56723;42.694;23.286;2023-03-26T08:06:27;94752.25;;;10.75;53.96
69524;BME280;56723;42.694;23.286;2023-03-26T08:12:57;94751.31;;;10.91;52.94
69524;BME280;56723;42.694;23.286;2023-03-26T08:15:36;94744.97;;;10.93;53.25
69524;BME280;56723;42.694;23.286;2023-03-26T08:21:22;94765.69;;;11.16;53.14
69524;BME280;56723;42.694;23.286;2023-03-26T08:24:00;94763.88;;;11.39;52.03
69524;BME280;56723;42.694;23.286;2023-03-26T08:27:35;94762.72;;;11.57;50.68
69524;BME280;56723;42.694;23.286;2023-03-26T08:29:41;94766.53;;;11.69;52.48
69524;BME280;56723;42.694;23.286;2023-03-26T08:32:17;94760.91;;;11.80;50.64
69524;BME280;56723;42.694;23.286;2023-03-26T08:34:45;94749.59;;;11.88;50.92
69524;BME280;56723;42.694;23.286;2023-03-26T08:37:12;94750.06;;;11.91;50.93
69524;BME280;56723;42.694;23.286;2023-03-26T08:39:40;94742.72;;;12.09;50.23
69524;BME280;56723;42.694;23.286;2023-03-26T08:42:28;94750.50;;;12.24;47.90
69524;BME280;56723;42.694;23.286;2023-03-26T08:55:54;94749.41;;;12.69;46.74
69524;BME280;56723;42.694;23.286;2023-03-26T09:38:08;94731.66;;;14.12;40.84
69524;BME280;56723;42.694;23.286;2023-03-26T09:40:54;94730.00;;;13.98;40.36
69524;BME280;56723;42.694;23.286;2023-03-26T09:46:05;94717.59;;;14.00;39.80
69524;BME280;56723;42.694;23.286;2023-03-26T10:02:39;94711.38;;;14.49;37.99
69524;BME280;56723;42.694;23.286;2023-03-26T10:08:40;94693.72;;;14.51;36.89
69524;BME280;56723;42.694;23.286;2023-03-26T10:14:12;94680.13;;;14.62;36.79
69524;BME280;56723;42.694;23.286;2023-03-26T10:19:59;94673.72;;;14.65;34.69
69524;BME280;56723;42.694;23.286;2023-03-26T10:36:32;94639.81;;;15.24;34.07
69524;BME280;56723;42.694;23.286;2023-03-26T10:53:57;94633.13;;;15.68;32.41
69524;BME280;56723;42.694;23.286;2023-03-26T10:59:20;94623.47;;;15.68;30.84
69524;BME280;56723;42.694;23.286;2023-03-26T11:02:18;94609.81;;;15.73;30.81
69524;BME280;56723;42.694;23.286;2023-03-26T11:08:14;94611.97;;;15.82;29.59
69524;BME280;56723;42.694;23.286;2023-03-26T11:16:27;94598.59;;;16.10;28.68
69524;BME280;56723;42.694;23.286;2023-03-26T11:19:19;94596.19;;;16.02;29.11
69524;BME280;56723;42.694;23.286;2023-03-26T11:21:59;94590.19;;;16.33;28.84
69524;BME280;56723;42.694;23.286;2023-03-26T11:32:52;94583.38;;;16.32;29.48
69524;BME280;56723;42.694;23.286;2023-03-26T11:35:45;94582.22;;;16.53;28.41
69524;BME280;56723;42.694;23.286;2023-03-26T11:38:31;94587.63;;;16.58;27.03
69524;BME280;56723;42.694;23.286;2023-03-26T11:41:00;94576.56;;;16.31;26.85
69524;BME280;56723;42.694;23.286;2023-03-26T11:44:00;94561.81;;;16.37;28.73
69524;BME280;56723;42.694;23.286;2023-03-26T11:46:30;94561.44;;;16.65;27.92
69524;BME280;56723;42.694;23.286;2023-03-26T11:49:03;94556.19;;;16.89;28.13
69524;BME280;56723;42.694;23.286;2023-03-26T11:51:36;94540.16;;;16.86;28.19
69524;BME280;56723;42.694;23.286;2023-03-26T11:54:04;94542.03;;;16.97;28.54
69524;BME280;56723;42.694;23.286;2023-03-26T12:02:22;94516.09;;;16.95;26.96
69524;BME280;56723;42.694;23.286;2023-03-26T12:04:51;94512.03;;;17.00;27.56
69524;BME280;56723;42.694;23.286;2023-03-26T12:07:32;94510.28;;;17.30;27.41
69524;BME280;56723;42.694;23.286;2023-03-26T12:10:01;94498.19;;;17.47;25.64
69524;BME280;56723;42.694;23.286;2023-03-26T12:12:45;94508.56;;;17.42;24.37
69524;BME280;56723;42.694;23.286;2023-03-26T12:15:14;94503.09;;;17.44;24.68
69524;BME280;56723;42.694;23.286;2023-03-26T12:17:43;94496.31;;;17.36;25.11
69524;BME280;56723;42.694;23.286;2023-03-26T12:22:54;94492.75;;;17.30;25.45
69524;BME280;56723;42.694;23.286;2023-03-26T12:25:37;94481.78;;;17.40;25.56
69524;BME280;56723;42.694;23.286;2023-03-26T12:28:17;94481.69;;;17.28;24.12
69524;BME280;56723;42.694;23.286;2023-03-26T12:30:58;94473.84;;;17.28;23.01
69524;BME280;56723;42.694;23.286;2023-03-26T12:33:28;94486.13;;;17.28;23.44
69524;BME280;56723;42.694;23.286;2023-03-26T12:36:35;94463.03;;;17.25;23.41
69524;BME280;56723;42.694;23.286;2023-03-26T12:42:29;94462.56;;;17.28;22.83
69524;BME280;56723;42.694;23.286;2023-03-26T12:45:22;94456.00;;;17.55;22.61
69524;BME280;56723;42.694;23.286;2023-03-26T12:47:51;94454.69;;;17.46;23.68
69524;BME280;56723;42.694;23.286;2023-03-26T12:50:50;94450.28;;;17.77;22.27
69524;BME280;56723;42.694;23.286;2023-03-26T12:56:30;94437.84;;;17.42;22.92
69524;BME280;56723;42.694;23.286;2023-03-26T12:59:10;94444.63;;;17.61;22.33
69524;BME280;56723;42.694;23.286;2023-03-26T13:02:04;94439.69;;;17.53;21.49
69524;BME280;56723;42.694;23.286;2023-03-26T13:04:53;94452.94;;;17.58;21.69
69524;BME280;56723;42.694;23.286;2023-03-26T13:15:30;94421.78;;;17.69;21.43
69524;BME280;56723;42.694;23.286;2023-03-26T13:23:49;94423.66;;;17.80;21.22
69524;BME280;56723;42.694;23.286;2023-03-26T13:29:21;94418.41;;;17.80;21.06
69524;BME280;56723;42.694;23.286;2023-03-26T13:43:35;94418.44;;;17.91;19.88
69524;BME280;56723;42.694;23.286;2023-03-26T13:48:53;94430.97;;;17.59;21.07
69524;BME280;56723;42.694;23.286;2023-03-26T13:56:57;94400.63;;;17.52;21.36
69524;BME280;56723;42.694;23.286;2023-03-26T14:02:53;94401.88;;;17.79;21.19
69524;BME280;56723;42.694;23.286;2023-03-26T14:04:59;94411.16;;;18.05;20.92
69524;BME280;56723;42.694;23.286;2023-03-26T14:07:37;94408.16;;;17.90;20.94
69524;BME280;56723;42.694;23.286;2023-03-26T14:10:12;94397.19;;;17.81;21.60
69524;BME280;56723;42.694;23.286;2023-03-26T14:13:03;94391.19;;;17.92;21.83
69524;BME280;56723;42.694;23.286;2023-03-26T14:15:46;94375.81;;;18.08;21.26
69524;BME280;56723;42.694;23.286;2023-03-26T14:18:26;94388.25;;;18.24;21.14
69524;BME280;56723;42.694;23.286;2023-03-26T14:29:45;94385.09;;;18.68;21.61
69524;BME280;56723;42.694;23.286;2023-03-26T14:35:15;94385.16;;;18.85;22.67
69524;BME280;56723;42.694;23.286;2023-03-26T14:43:58;94370.94;;;18.70;22.16
69524;BME280;56723;42.694;23.286;2023-03-26T14:47:10;94370.22;;;18.39;22.61
69524;BME280;56723;42.694;23.286;2023-03-26T14:52:56;94371.38;;;18.08;22.40
69524;BME280;56723;42.694;23.286;2023-03-26T15:16:11;94373.91;;;18.73;22.00
69524;BME280;56723;42.694;23.286;2023-03-26T15:19:08;94368.28;;;18.58;22.87
69524;BME280;56723;42.694;23.286;2023-03-26T15:28:16;94363.75;;;18.65;22.61
69524;BME280;56723;42.694;23.286;2023-03-26T15:31:09;94367.41;;;18.64;23.13
69524;BME280;56723;42.694;23.286;2023-03-26T15:39:47;94377.06;;;17.93;24.13
69524;BME280;56723;42.694;23.286;2023-03-26T15:43:11;94385.22;;;17.14;24.75
69524;BME280;56723;42.694;23.286;2023-03-26T15:54:56;94385.28;;;16.09;26.49
69524;BME280;56723;42.694;23.286;2023-03-26T15:57:33;94390.09;;;16.12;26.69
69524;BME280;56723;42.694;23.286;2023-03-26T16:00:23;94388.38;;;16.00;26.73
69524;BME280;56723;42.694;23.286;2023-03-26T16:08:38;94388.97;;;15.77;27.65
69524;BME280;56723;42.694;23.286;2023-03-26T16:11:12;94390.41;;;15.73;26.97
69524;BME280;56723;42.694;23.286;2023-03-26T16:16:54;94392.50;;;15.51;27.73
69524;BME280;56723;42.694;23.286;2023-03-26T16:22:02;94403.41;;;15.41;27.75
69524;BME280;56723;42.694;23.286;2023-03-26T16:24:33;94397.44;;;15.34;28.37
69524;BME280;56723;42.694;23.286;2023-03-26T16:27:05;94400.47;;;15.31;28.35
69524;BME280;56723;42.694;23.286;2023-03-26T16:33:07;94404.88;;;15.31;28.18
69524;BME280;56723;42.694;23.286;2023-03-26T16:41:32;94409.97;;;15.12;29.16
69524;BME280;56723;42.694;23.286;2023-03-26T16:44:10;94405.97;;;15.10;28.76
69524;BME280;56723;42.694;23.286;2023-03-26T16:52:47;94403.63;;;15.02;29.58
69524;BME280;56723;42.694;23.286;2023-03-26T16:55:21;94404.03;;;14.99;29.23
69524;BME280;56723;42.694;23.286;2023-03-26T16:58:34;94402.81;;;15.01;29.22
69524;BME280;56723;42.694;23.286;2023-03-26T17:00:53;94406.84;;;14.90;29.45
69524;BME280;56723;42.694;23.286;2023-03-26T17:03:49;94408.69;;;14.83;29.61
69524;BME280;56723;42.694;23.286;2023-03-26T17:06:30;94413.97;;;14.64;29.99
69524;BME280;56723;42.694;23.286;2023-03-26T17:09:06;94416.59;;;14.31;30.24
69524;BME280;56723;42.694;23.286;2023-03-26T17:14:24;94415.41;;;14.20;31.07
69524;BME280;56723;42.694;23.286;2023-03-26T17:19:35;94421.44;;;13.88;31.91
69524;BME280;56723;42.694;23.286;2023-03-26T17:25:24;94425.00;;;13.54;33.16
69524;BME280;56723;42.694;23.286;2023-03-26T17:30:56;94437.34;;;13.32;34.37
69524;BME280;56723;42.694;23.286;2023-03-26T17:33:33;94424.06;;;13.13;34.92
69524;BME280;56723;42.694;23.286;2023-03-26T17:41:09;94428.34;;;12.87;36.36
69524;BME280;56723;42.694;23.286;2023-03-26T17:46:19;94422.84;;;12.68;36.76
69524;BME280;56723;42.694;23.286;2023-03-26T17:51:51;94426.13;;;12.42;37.35
69524;BME280;56723;42.694;23.286;2023-03-26T17:54:26;94420.53;;;12.45;37.18
69524;BME280;56723;42.694;23.286;2023-03-26T17:57:01;94408.69;;;12.36;37.48
69524;BME280;56723;42.694;23.286;2023-03-26T17:59:30;94401.03;;;12.28;37.46
69524;BME280;56723;42.694;23.286;2023-03-26T18:02:00;94419.25;;;12.35;37.36
69524;BME280;56723;42.694;23.286;2023-03-26T18:04:40;94412.47;;;12.34;37.87
69524;BME280;56723;42.694;23.286;2023-03-26T18:10:17;94415.44;;;12.31;37.61
69524;BME280;56723;42.694;23.286;2023-03-26T18:18:24;94413.59;;;12.25;38.33
69524;BME280;56723;42.694;23.286;2023-03-26T18:20:53;94412.38;;;12.21;38.21
69524;BME280;56723;42.694;23.286;2023-03-26T18:23:27;94423.53;;;12.14;37.63
69524;BME280;56723;42.694;23.286;2023-03-26T18:26:12;94414.66;;;12.02;37.96
69524;BME280;56723;42.694;23.286;2023-03-26T18:28:48;94411.19;;;11.95;38.47
69524;BME280;56723;42.694;23.286;2023-03-26T18:31:22;94409.75;;;11.86;38.76
69524;BME280;56723;42.694;23.286;2023-03-26T18:33:54;94408.06;;;11.78;38.89
69524;BME280;56723;42.694;23.286;2023-03-26T18:36:24;94413.56;;;11.69;39.21
69524;BME280;56723;42.694;23.286;2023-03-26T18:38:59;94399.28;;;11.58;39.53
69524;BME280;56723;42.694;23.286;2023-03-26T18:41:32;94404.66;;;11.57;39.78
69524;BME280;56723;42.694;23.286;2023-03-26T18:44:04;94400.00;;;11.52;39.35
69524;BME280;56723;42.694;23.286;2023-03-26T18:46:32;94392.66;;;11.56;39.51
69524;BME280;56723;42.694;23.286;2023-03-26T18:49:00;94388.47;;;11.55;39.44
69524;BME280;56723;42.694;23.286;2023-03-26T18:51:30;94386.44;;;11.50;39.77
69524;BME280;56723;42.694;23.286;2023-03-26T18:54:03;94382.09;;;11.36;39.85
69524;BME280;56723;42.694;23.286;2023-03-26T18:56:35;94380.44;;;11.28;40.50
69524;BME280;56723;42.694;23.286;2023-03-26T18:59:04;94386.09;;;11.17;40.72
69524;BME280;56723;42.694;23.286;2023-03-26T19:01:34;94376.22;;;11.06;40.73
69524;BME280;56723;42.694;23.286;2023-03-26T19:04:05;94373.91;;;11.11;40.77
69524;BME280;56723;42.694;23.286;2023-03-26T19:06:34;94370.25;;;11.05;40.61
69524;BME280;56723;42.694;23.286;2023-03-26T19:09:05;94365.41;;;11.02;40.50
69524;BME280;56723;42.694;23.286;2023-03-26T19:11:55;94347.81;;;10.98;40.39
69524;BME280;56723;42.694;23.286;2023-03-26T19:14:24;94353.88;;;11.05;40.52
69524;BME280;56723;42.694;23.286;2023-03-26T19:16:57;94355.13;;;11.09;40.42
69524;BME280;56723;42.694;23.286;2023-03-26T19:19:29;94353.53;;;11.08;40.22
69524;BME280;56723;42.694;23.286;2023-03-26T19:21:58;94353.25;;;11.03;40.15
69524;BME280;56723;42.694;23.286;2023-03-26T19:24:31;94349.69;;;11.04;40.38
69524;BME280;56723;42.694;23.286;2023-03-26T19:27:27;94346.03;;;10.98;40.28
69524;BME280;56723;42.694;23.286;2023-03-26T19:30:34;94341.03;;;10.97;40.36
69524;BME280;56723;42.694;23.286;2023-03-26T19:33:15;94337.25;;;10.99;43.53
69524;BME280;56723;42.694;23.286;2023-03-26T19:35:46;94333.44;;;10.95;40.11
69524;BME280;56723;42.694;23.286;2023-03-26T19:38:24;94337.31;;;10.85;39.61
69524;BME280;56723;42.694;23.286;2023-03-26T19:41:19;94330.03;;;10.73;39.75
69524;BME280;56723;42.694;23.286;2023-03-26T19:43:58;94331.03;;;10.58;40.00
69524;BME280;56723;42.694;23.286;2023-03-26T19:46:27;94324.00;;;10.52;40.06
69524;BME280;56723;42.694;23.286;2023-03-26T19:48:55;94319.34;;;10.47;41.26
69524;BME280;56723;42.694;23.286;2023-03-26T19:51:30;94320.06;;;10.56;40.26
69524;BME280;56723;42.694;23.286;2023-03-26T19:54:12;94316.69;;;10.55;40.15
69524;BME280;56723;42.694;23.286;2023-03-26T19:56:41;94307.91;;;10.56;40.03
69524;BME280;56723;42.694;23.286;2023-03-26T19:59:09;94301.50;;;10.52;39.93
69524;BME280;56723;42.694;23.286;2023-03-26T20:01:36;94302.84;;;10.48;40.43
69524;BME280;56723;42.694;23.286;2023-03-26T20:04:05;94312.22;;;10.49;40.75
69524;BME280;56723;42.694;23.286;2023-03-26T20:06:32;94305.34;;;10.41;40.45
69524;BME280;56723;42.694;23.286;2023-03-26T20:09:12;94317.44;;;10.20;41.36
69524;BME280;56723;42.694;23.286;2023-03-26T20:11:54;94308.19;;;10.02;41.26
69524;BME280;56723;42.694;23.286;2023-03-26T20:14:21;94315.78;;;10.04;41.55
69524;BME280;56723;42.694;23.286;2023-03-26T20:16:53;94307.50;;;10.08;41.33
69524;BME280;56723;42.694;23.286;2023-03-26T20:19:20;94319.09;;;10.13;41.02
69524;BME280;56723;42.694;23.286;2023-03-26T20:21:48;94310.53;;;10.12;41.81
69524;BME280;56723;42.694;23.286;2023-03-26T20:24:17;94302.94;;;10.11;41.44
69524;BME280;56723;42.694;23.286;2023-03-26T20:26:45;94306.69;;;10.08;41.58
69524;BME280;56723;42.694;23.286;2023-03-26T20:29:13;94291.69;;;10.03;41.55
69524;BME280;56723;42.694;23.286;2023-03-26T20:31:42;94297.66;;;10.04;41.92
69524;BME280;56723;42.694;23.286;2023-03-26T20:34:21;94302.22;;;10.02;42.84
69524;BME280;56723;42.694;23.286;2023-03-26T20:36:50;94307.94;;;9.97;44.08
69524;BME280;56723;42.694;23.286;2023-03-26T20:39:27;94298.41;;;9.83;44.67
69524;BME280;56723;42.694;23.286;2023-03-26T20:41:55;94298.13;;;9.78;45.42
69524;BME280;56723;42.694;23.286;2023-03-26T20:44:23;94299.97;;;9.69;45.65
69524;BME280;56723;42.694;23.286;2023-03-26T20:46:52;94297.91;;;9.65;45.97
69524;BME280;56723;42.694;23.286;2023-03-26T20:49:21;94291.06;;;9.57;46.29
69524;BME280;56723;42.694;23.286;2023-03-26T20:51:49;94299.09;;;9.62;46.52
69524;BME280;56723;42.694;23.286;2023-03-26T20:54:21;94298.28;;;9.62;46.19
69524;BME280;56723;42.694;23.286;2023-03-26T20:56:49;94296.84;;;9.59;46.06
69524;BME280;56723;42.694;23.286;2023-03-26T20:59:22;94298.34;;;9.54;46.37
69524;BME280;56723;42.694;23.286;2023-03-26T21:01:54;94286.50;;;9.45;46.67
69524;BME280;56723;42.694;23.286;2023-03-26T21:04:23;94288.91;;;9.46;47.04
69524;BME280;56723;42.694;23.286;2023-03-26T21:06:50;94286.03;;;9.41;47.39
69524;BME280;56723;42.694;23.286;2023-03-26T21:09:29;94289.34;;;9.50;47.24
69524;BME280;56723;42.694;23.286;2023-03-26T21:12:09;94284.00;;;9.51;47.08
69524;BME280;56723;42.694;23.286;2023-03-26T21:14:42;94281.16;;;9.46;47.78
69524;BME280;56723;42.694;23.286;2023-03-26T21:17:16;94273.63;;;9.36;47.72
69524;BME280;56723;42.694;23.286;2023-03-26T21:19:44;94288.59;;;9.26;48.22
69524;BME280;56723;42.694;23.286;2023-03-26T21:30:12;94271.09;;;8.91;49.80
69524;BME280;56723;42.694;23.286;2023-03-26T21:32:43;94279.56;;;8.85;50.05
69524;BME280;56723;42.694;23.286;2023-03-26T21:35:12;94259.44;;;8.72;51.02
69524;BME280;56723;42.694;23.286;2023-03-26T21:37:42;94253.22;;;8.66;51.38
69524;BME280;56723;42.694;23.286;2023-03-26T21:40:14;94253.03;;;8.68;51.56
69524;BME280;56723;42.694;23.286;2023-03-26T21:42:44;94245.50;;;8.58;51.24
69524;BME280;56723;42.694;23.286;2023-03-26T21:45:12;94238.09;;;8.55;52.29
69524;BME280;56723;42.694;23.286;2023-03-26T21:47:40;94236.50;;;8.54;51.70
69524;BME280;56723;42.694;23.286;2023-03-26T21:50:09;94228.94;;;8.53;52.16
69524;BME280;56723;42.694;23.286;2023-03-26T21:52:37;94211.47;;;8.55;51.85
69524;BME280;56723;42.694;23.286;2023-03-26T21:55:17;94215.50;;;8.57;52.12
69524;BME280;56723;42.694;23.286;2023-03-26T22:01:15;94213.44;;;8.53;52.93
69524;BME280;56723;42.694;23.286;2023-03-26T22:03:54;94211.53;;;8.47;52.69
69524;BME280;56723;42.694;23.286;2023-03-26T22:08:51;94224.69;;;8.29;53.66
69524;BME280;56723;42.694;23.286;2023-03-26T22:11:18;94225.19;;;8.24;53.51
69524;BME280;56723;42.694;23.286;2023-03-26T22:13:45;94228.28;;;8.20;53.26
69524;BME280;56723;42.694;23.286;2023-03-26T22:16:12;94218.50;;;8.15;54.03
69524;BME280;56723;42.694;23.286;2023-03-26T22:18:39;94212.69;;;8.13;54.68
69524;BME280;56723;42.694;23.286;2023-03-26T22:21:09;94211.41;;;8.09;55.25
69524;BME280;56723;42.694;23.286;2023-03-26T22:23:36;94186.78;;;7.98;55.61
69524;BME280;56723;42.694;23.286;2023-03-26T22:26:04;94198.06;;;8.06;56.53
69524;BME280;56723;42.694;23.286;2023-03-26T22:28:32;94175.63;;;8.06;56.42